Time;durP1;ratioP1;P1;durP2;ratioP2;P2;SDS_P1;SDS_P2;PMS_P1;PMS_P2;Temp;Humidity;BMP_temperature;BMP_pressure;BME280_temperature;BME280_humidity;BME280_pressure;Samples;Min_cycle;Max_cycle;Signal;HPM_P1;HPM_P2
2022/01/23 00:01:41;;;;;;;3.00;0.40;;;24.30;99.90;;;;;;5013515;28;20033;-69
2022/01/23 00:04:08;;;;;;;5.18;0.32;;;24.30;99.90;;;;;;5013800;28;20073;-69
2022/01/23 00:06:36;;;;;;;2.53;0.40;;;24.40;99.90;;;;;;5013885;28;20463;-69
2022/01/23 00:09:03;;;;;;;4.63;0.80;;;24.50;99.90;;;;;;5013071;28;20026;-70
2022/01/23 00:11:35;;;;;;;4.22;0.50;;;24.70;99.90;;;;;;5013478;28;20118;-69
2022/01/23 00:19:15;;;;;;;4.82;0.45;;;24.90;99.90;;;;;;5013466;28;20025;-69
2022/01/23 00:21:42;;;;;;;5.20;0.40;;;24.90;99.90;;;;;;5013044;28;20033;-71
2022/01/23 00:32:10;;;;;;;4.20;0.60;;;25.10;99.90;;;;;;5013229;28;20041;-71
2022/01/23 00:34:37;;;;;;;6.95;0.77;;;25.10;99.90;;;;;;5013160;28;20068;-68
2022/01/23 00:37:05;;;;;;;4.90;0.75;;;25.10;99.90;;;;;;5012924;28;20053;-69
2022/01/23 00:39:32;;;;;;;5.65;0.60;;;25.10;99.90;;;;;;5013093;28;20022;-69
2022/01/23 00:41:59;;;;;;;3.25;0.57;;;25.10;99.90;;;;;;5012949;28;20057;-69
2022/01/23 00:44:28;;;;;;;2.85;0.50;;;25.10;99.90;;;;;;5013093;28;20430;-68
2022/01/23 00:46:55;;;;;;;3.55;0.52;;;25.10;99.90;;;;;;5012698;28;20474;-70
2022/01/23 00:49:25;;;;;;;4.78;0.70;;;25.20;99.90;;;;;;5012799;28;20056;-69
2022/01/23 00:51:54;;;;;;;2.33;0.50;;;25.20;99.90;;;;;;5012596;28;20022;-70
2022/01/23 00:54:22;;;;;;;5.10;0.50;;;25.30;99.90;;;;;;5012931;28;20104;-70
2022/01/23 00:56:50;;;;;;;2.53;0.40;;;25.20;99.70;;;;;;5012685;28;20025;-70
2022/01/23 00:59:17;;;;;;;6.55;0.65;;;25.10;99.00;;;;;;5012713;28;20029;-71
2022/01/23 01:01:44;;;;;;;2.45;0.82;;;25.00;98.90;;;;;;5012618;28;20060;-71
2022/01/23 01:04:12;;;;;;;1.73;0.65;;;25.00;99.50;;;;;;5012597;28;20087;-68
2022/01/23 01:06:39;;;;;;;2.42;0.60;;;25.10;99.90;;;;;;5012411;28;20018;-69
2022/01/23 01:09:09;;;;;;;3.60;0.50;;;25.20;99.90;;;;;;5012130;28;20092;-70
2022/01/23 01:11:54;;;;;;;1.73;0.50;;;25.30;99.50;;;;;;5012031;28;20042;-71
2022/01/23 01:17:17;;;;;;;1.73;0.30;;;25.50;98.00;;;;;;5012673;28;20049;-68
2022/01/23 01:31:09;;;;;;;4.50;1.52;;;25.90;98.50;;;;;;5012430;28;20068;-68
2022/01/23 01:36:32;;;;;;;4.40;0.50;;;25.80;99.60;;;;;;5011684;28;20076;-67
2022/01/23 01:38:59;;;;;;;4.07;0.52;;;25.70;99.90;;;;;;5012010;28;20272;-68
2022/01/23 01:41:27;;;;;;;3.20;1.10;;;25.70;99.90;;;;;;5012141;28;20029;-67
2022/01/23 01:43:57;;;;;;;4.57;0.75;;;25.60;99.90;;;;;;5012099;28;20021;-67
2022/01/23 01:46:25;;;;;;;1.45;0.32;;;25.40;99.90;;;;;;5012194;28;20018;-67
2022/01/23 01:48:52;;;;;;;4.05;1.02;;;25.20;99.90;;;;;;5012076;28;20033;-68
2022/01/23 01:51:19;;;;;;;1.85;0.40;;;25.10;99.90;;;;;;5011770;28;20080;-67
2022/01/23 01:53:52;;;;;;;3.60;0.50;;;24.90;99.90;;;;;;5011754;28;20030;-69
2022/01/23 01:56:19;;;;;;;1.40;0.40;;;24.70;99.90;;;;;;5011783;28;20428;-69
2022/01/23 02:09:41;;;;;;;2.47;0.32;;;25.30;99.40;;;;;;5011951;28;20061;-69
2022/01/23 02:12:38;;;;;;;1.95;0.63;;;25.70;98.90;;;;;;5011664;28;20029;-69
2022/01/23 02:17:58;;;;;;;2.40;0.30;;;26.00;97.90;;;;;;5011645;28;20037;-71
2022/01/23 02:50:59;;;;;;;3.33;0.40;;;27.50;96.00;;;;;;5013971;28;20137;-69
2022/01/23 02:53:41;;;;;;;1.52;0.30;;;27.70;94.70;;;;;;5014518;28;20045;-70
2022/01/23 02:56:21;;;;;;;0.77;0.20;;;27.90;95.10;;;;;;5014900;28;20470;-70
2022/01/23 02:58:58;;;;;;;1.35;0.20;;;27.80;95.20;;;;;;5015050;28;20030;-69
2022/01/23 03:01:32;;;;;;;0.75;0.30;;;27.80;94.60;;;;;;5014777;28;20061;-69
2022/01/23 03:04:04;;;;;;;3.63;0.85;;;27.70;94.60;;;;;;5014859;28;20029;-70
2022/01/23 03:14:56;;;;;;;2.33;1.10;;;28.40;93.40;;;;;;5010223;28;20486;-68
2022/01/23 03:31:22;;;;;;;;;;;29.00;92.20;;;;;;5014581;28;20545;-69
2022/01/23 03:33:49;;;;;;;1.60;0.50;;;28.90;92.30;;;;;;5014200;28;19905;-68
2022/01/23 03:36:17;;;;;;;3.38;0.50;;;28.50;92.80;;;;;;5014443;28;20040;-67
2022/01/23 03:38:47;;;;;;;2.30;0.50;;;28.30;93.00;;;;;;5014320;28;20442;-69
2022/01/23 03:41:14;;;;;;;2.45;0.40;;;28.10;93.80;;;;;;5013895;28;20034;-68
2022/01/23 03:43:42;;;;;;;3.45;0.40;;;27.60;93.30;;;;;;5014007;28;20033;-68
2022/01/23 03:51:44;;;;;;;5.13;0.95;;;27.20;93.90;;;;;;5013931;28;20032;-68
2022/01/23 03:54:11;;;;;;;0.60;0.20;;;26.90;93.70;;;;;;5013583;28;20024;-70
2022/01/23 03:56:39;;;;;;;1.42;0.40;;;26.90;93.50;;;;;;5013870;28;20055;-67
2022/01/23 03:59:06;;;;;;;4.10;0.40;;;26.80;93.70;;;;;;5013988;28;20026;-67
2022/01/23 04:01:33;;;;;;;3.00;0.82;;;26.70;93.40;;;;;;5013275;28;20124;-67
2022/01/23 04:04:05;;;;;;;0.93;0.20;;;26.70;93.40;;;;;;5013631;28;20022;-67
2022/01/23 04:06:33;;;;;;;2.50;0.28;;;26.60;93.60;;;;;;5013442;28;20030;-69
2022/01/23 04:09:00;;;;;;;2.92;0.20;;;26.80;93.80;;;;;;5013362;28;20073;-71
2022/01/23 04:11:28;;;;;;;2.13;0.40;;;27.00;93.30;;;;;;5013454;28;20132;-67
2022/01/23 04:14:04;;;;;;;3.65;0.50;;;27.10;93.70;;;;;;5013354;28;20072;-68
2022/01/23 04:19:28;;;;;;;1.88;0.38;;;27.20;93.70;;;;;;5013366;28;20022;-69
2022/01/23 04:33:17;;;;;;;3.58;0.93;;;28.70;92.50;;;;;;5013365;28;20060;-69
2022/01/23 04:59:56;;;;;;;2.55;0.40;;;32.90;76.40;;;;;;5012010;28;20036;-70
2022/01/23 05:05:29;;;;;;;3.17;0.40;;;33.30;74.80;;;;;;4990335;28;20038;-68
2022/01/23 05:07:57;;;;;;;1.80;0.20;;;33.00;76.10;;;;;;5012577;28;20080;-70
2022/01/23 05:10:24;;;;;;;2.03;0.40;;;33.10;75.00;;;;;;5012439;28;20045;-69
2022/01/23 05:12:52;;;;;;;1.35;0.20;;;32.50;77.10;;;;;;5010524;28;20052;-69
2022/01/23 05:15:19;;;;;;;1.13;0.20;;;32.60;76.30;;;;;;5012346;28;20162;-69
2022/01/23 05:17:48;;;;;;;1.00;0.20;;;33.00;75.90;;;;;;5011412;28;20383;-69
2022/01/23 05:20:17;;;;;;;0.22;0.20;;;33.10;75.50;;;;;;5012414;28;20034;-69
2022/01/23 05:22:50;;;;;;;1.40;0.28;;;33.30;74.30;;;;;;5012224;28;20466;-70
2022/01/23 05:25:27;;;;;;;1.58;0.35;;;33.30;75.30;;;;;;5012067;28;20072;-70
2022/01/23 05:27:55;;;;;;;2.22;0.50;;;33.80;72.00;;;;;;5012052;28;20089;-71
2022/01/23 05:30:24;;;;;;;1.15;0.30;;;33.70;70.10;;;;;;5012633;28;20026;-69
2022/01/23 05:32:52;;;;;;;1.23;0.47;;;33.90;70.20;;;;;;5010988;28;20550;-68
2022/01/23 05:35:22;;;;;;;0.85;0.22;;;33.90;70.10;;;;;;5012020;28;20030;-71
2022/01/23 05:37:50;;;;;;;2.65;0.30;;;33.60;71.20;;;;;;5012180;28;20457;-70
2022/01/23 05:40:19;;;;;;;1.98;0.40;;;33.60;72.40;;;;;;5012172;28;20026;-69
2022/01/23 05:42:46;;;;;;;4.65;0.70;;;33.80;71.50;;;;;;5011945;28;20130;-69
2022/01/23 05:45:14;;;;;;;1.27;0.22;;;33.90;71.60;;;;;;5012465;28;20050;-68
2022/01/23 05:47:41;;;;;;;1.45;0.20;;;34.20;72.20;;;;;;5012121;28;20056;-67
2022/01/23 05:50:09;;;;;;;3.80;0.30;;;34.20;71.60;;;;;;5011903;28;20033;-68
2022/01/23 05:52:36;;;;;;;1.77;0.45;;;34.10;71.90;;;;;;5011860;28;20538;-68
2022/01/23 05:55:05;;;;;;;1.90;0.45;;;33.40;73.90;;;;;;5011894;28;20383;-68
2022/01/23 05:57:32;;;;;;;1.08;0.30;;;32.70;74.30;;;;;;5012193;28;20046;-67
2022/01/23 06:00:00;;;;;;;0.50;0.20;;;31.80;76.10;;;;;;5011852;28;20022;-69
2022/01/23 06:02:27;;;;;;;3.17;0.38;;;31.40;78.30;;;;;;5012159;28;20087;-69
2022/01/23 06:04:54;;;;;;;2.10;0.38;;;30.90;79.40;;;;;;5012357;28;20022;-70
2022/01/23 06:07:21;;;;;;;3.95;0.38;;;30.40;80.50;;;;;;5011871;28;20061;-68
2022/01/23 06:09:49;;;;;;;2.00;0.30;;;29.90;82.10;;;;;;5010329;28;20097;-68
2022/01/23 06:12:16;;;;;;;2.90;0.50;;;29.50;83.80;;;;;;5011408;28;20026;-69
2022/01/23 06:14:43;;;;;;;2.67;0.30;;;29.20;85.50;;;;;;5011605;28;20018;-69
2022/01/23 06:17:11;;;;;;;2.47;0.30;;;29.10;85.60;;;;;;5011729;28;20034;-69
2022/01/23 06:19:39;;;;;;;2.75;0.38;;;28.90;86.20;;;;;;5011784;28;20110;-68
2022/01/23 06:22:07;;;;;;;5.47;0.57;;;28.90;87.20;;;;;;5011546;28;20034;-67
2022/01/23 06:24:36;;;;;;;2.97;0.30;;;28.80;87.40;;;;;;5013239;28;20032;-68
2022/01/23 06:27:04;;;;;;;1.50;0.30;;;28.60;88.20;;;;;;5015132;28;20044;-68
2022/01/23 06:29:31;;;;;;;3.72;0.40;;;28.30;88.80;;;;;;5013884;28;20113;-71
2022/01/23 06:32:02;;;;;;;1.92;0.32;;;28.10;89.50;;;;;;5015655;28;20033;-71
2022/01/23 06:34:31;;;;;;;4.15;0.43;;;28.20;89.70;;;;;;5015672;28;20025;-69
2022/01/23 06:36:58;;;;;;;3.58;0.40;;;28.30;89.90;;;;;;5014904;28;20053;-69
2022/01/23 06:39:26;;;;;;;3.08;0.50;;;28.00;90.10;;;;;;5015458;28;20026;-70
2022/01/23 06:41:55;;;;;;;6.03;0.50;;;28.10;90.50;;;;;;5015319;28;20026;-70
2022/01/23 06:44:23;;;;;;;2.33;0.30;;;28.50;88.70;;;;;;5015361;28;20026;-69
2022/01/23 06:46:50;;;;;;;4.20;0.30;;;28.60;87.70;;;;;;5015238;28;20030;-69
2022/01/23 06:49:18;;;;;;;2.17;0.20;;;28.50;87.30;;;;;;5015094;28;20087;-68
2022/01/23 06:51:47;;;;;;;3.63;0.30;;;28.10;86.00;;;;;;5015203;28;20018;-69
2022/01/23 06:54:14;;;;;;;2.40;0.35;;;27.90;86.20;;;;;;5015103;28;20585;-70
2022/01/23 06:56:42;;;;;;;0.88;0.35;;;27.80;88.10;;;;;;5014465;28;20026;-71
2022/01/23 06:59:09;;;;;;;2.65;0.50;;;27.80;87.90;;;;;;5014491;28;20545;-70
2022/01/23 07:01:36;;;;;;;2.30;0.40;;;27.40;89.90;;;;;;5014568;28;20036;-70
2022/01/23 07:04:04;;;;;;;2.50;0.40;;;27.30;90.00;;;;;;5014787;28;20022;-70
2022/01/23 07:06:31;;;;;;;4.18;0.43;;;27.10;90.60;;;;;;5014895;28;20064;-69
2022/01/23 07:08:59;;;;;;;3.38;0.50;;;27.00;91.10;;;;;;5014709;28;20471;-70
2022/01/23 07:11:26;;;;;;;1.60;0.25;;;26.80;91.10;;;;;;5014483;28;20030;-68
2022/01/23 07:13:53;;;;;;;3.30;0.82;;;26.80;91.60;;;;;;5014542;28;20080;-69
2022/01/23 07:16:21;;;;;;;1.42;0.57;;;26.60;91.70;;;;;;5014544;28;20479;-69
2022/01/23 07:18:48;;;;;;;1.08;0.40;;;26.40;92.20;;;;;;5013312;28;20038;-69
2022/01/23 07:21:19;;;;;;;1.85;0.30;;;26.30;92.50;;;;;;5014464;28;20025;-72
2022/01/23 07:23:50;;;;;;;2.90;0.52;;;26.10;92.70;;;;;;5014437;28;20022;-69
2022/01/23 07:26:20;;;;;;;6.03;1.65;;;26.10;93.20;;;;;;5014104;28;20034;-69
2022/01/23 07:28:48;;;;;;;3.75;0.47;;;26.00;93.20;;;;;;5013783;28;20045;-71
2022/01/23 07:34:03;;;;;;;3.78;0.45;;;25.80;93.70;;;;;;5014073;28;20022;-70
2022/01/23 07:36:31;;;;;;;3.30;0.40;;;25.80;94.10;;;;;;5013560;28;20014;-69
2022/01/23 07:38:58;;;;;;;2.83;0.30;;;25.80;93.40;;;;;;5014428;28;20040;-70
2022/01/23 07:41:26;;;;;;;2.75;0.50;;;25.60;93.80;;;;;;5014144;28;20486;-70
2022/01/23 07:43:53;;;;;;;2.95;0.45;;;25.40;94.30;;;;;;5014072;28;20104;-70
2022/01/23 07:46:21;;;;;;;2.50;0.35;;;25.30;94.10;;;;;;5013930;28;20022;-69
2022/01/23 07:48:49;;;;;;;1.52;0.88;;;25.30;93.40;;;;;;5013448;28;20092;-69
2022/01/23 07:51:16;;;;;;;2.17;0.40;;;25.10;94.10;;;;;;5013673;28;20457;-69
2022/01/23 07:53:43;;;;;;;1.48;0.30;;;25.10;93.80;;;;;;5013777;28;20049;-71
2022/01/23 07:56:11;;;;;;;2.20;0.30;;;24.90;94.20;;;;;;5013648;28;20017;-70
2022/01/23 07:58:38;;;;;;;3.67;0.30;;;24.90;94.40;;;;;;5012100;28;20080;-70
2022/01/23 08:01:06;;;;;;;3.53;0.40;;;24.90;94.50;;;;;;5013679;28;20060;-69
2022/01/23 08:03:33;;;;;;;1.20;0.40;;;24.80;94.80;;;;;;5013725;28;20092;-70
2022/01/23 08:06:00;;;;;;;3.10;0.60;;;24.80;94.90;;;;;;5013500;28;20080;-70
2022/01/23 08:08:28;;;;;;;1.92;0.30;;;24.80;95.40;;;;;;5013004;28;20034;-69
2022/01/23 08:10:55;;;;;;;2.35;0.57;;;24.70;95.90;;;;;;5013669;28;20502;-69
2022/01/23 08:13:23;;;;;;;2.28;0.40;;;24.70;95.90;;;;;;5013710;28;20037;-68
2022/01/23 08:15:50;;;;;;;3.65;1.13;;;24.60;96.20;;;;;;5013379;28;20060;-70
2022/01/23 08:18:17;;;;;;;2.95;0.55;;;24.50;96.50;;;;;;5013438;28;20041;-70
2022/01/23 08:20:45;;;;;;;5.13;1.13;;;24.50;96.80;;;;;;5013104;28;20049;-70
2022/01/23 08:23:13;;;;;;;2.83;0.70;;;24.50;97.10;;;;;;5013129;28;20018;-70
2022/01/23 08:25:41;;;;;;;1.10;0.40;;;24.50;96.90;;;;;;5013197;28;20172;-71
2022/01/23 08:28:08;;;;;;;3.03;0.70;;;24.50;97.40;;;;;;5012999;28;20152;-69
2022/01/23 08:30:36;;;;;;;3.08;1.27;;;24.50;97.80;;;;;;5013391;28;20030;-70
2022/01/23 08:33:03;;;;;;;2.17;0.70;;;24.50;98.40;;;;;;5013369;28;20347;-70
2022/01/23 08:35:31;;;;;;;4.32;0.70;;;24.40;99.10;;;;;;5013034;28;20470;-68
2022/01/23 08:37:59;;;;;;;1.33;0.60;;;24.20;99.90;;;;;;5013101;28;20026;-69
2022/01/23 08:43:24;;;;;;;1.60;0.43;;;23.80;99.90;;;;;;4976473;28;20460;-70
2022/01/23 08:45:52;;;;;;;2.78;0.80;;;23.60;99.90;;;;;;5013101;28;20423;-69
2022/01/23 08:48:20;;;;;;;6.30;0.90;;;23.50;99.90;;;;;;5012042;28;20034;-69
2022/01/23 08:50:47;;;;;;;4.07;0.70;;;23.40;99.90;;;;;;5012742;28;20018;-70
2022/01/23 08:53:14;;;;;;;4.07;0.90;;;23.30;99.90;;;;;;5012782;28;20389;-69
2022/01/23 08:55:42;;;;;;;3.55;1.00;;;23.20;99.90;;;;;;5012558;28;20029;-69
2022/01/23 08:58:09;;;;;;;3.83;0.80;;;23.20;99.90;;;;;;5011482;28;20032;-69
2022/01/23 09:00:37;;;;;;;3.35;0.50;;;23.20;99.90;;;;;;5012491;28;20364;-69
2022/01/23 09:03:04;;;;;;;3.38;0.55;;;23.20;99.90;;;;;;5012336;28;20018;-70
2022/01/23 09:05:31;;;;;;;3.58;0.60;;;23.20;99.90;;;;;;5012420;28;20076;-69
2022/01/23 09:07:59;;;;;;;3.67;0.90;;;23.20;99.90;;;;;;5012650;28;20529;-70
2022/01/23 09:10:28;;;;;;;4.78;0.57;;;23.10;99.90;;;;;;5012626;28;20116;-70
2022/01/23 09:13:16;;;;;;;4.60;0.85;;;23.10;99.90;;;;;;5012618;28;20038;-69
2022/01/23 09:15:44;;;;;;;2.50;0.68;;;23.00;99.90;;;;;;5012566;28;20052;-70
2022/01/23 09:18:11;;;;;;;5.40;1.98;;;22.90;99.90;;;;;;5012696;28;20026;-70
2022/01/23 09:20:39;;;;;;;2.10;0.73;;;22.90;99.90;;;;;;5012666;28;20030;-69
2022/01/23 09:23:06;;;;;;;2.58;0.60;;;23.00;99.90;;;;;;5012584;28;20017;-70
2022/01/23 09:25:33;;;;;;;4.22;0.65;;;23.00;99.90;;;;;;5012767;28;20021;-69
2022/01/23 09:28:07;;;;;;;4.78;0.70;;;23.00;99.90;;;;;;5012464;28;20125;-68
2022/01/23 09:30:35;;;;;;;2.40;0.60;;;22.90;99.90;;;;;;5012306;28;20029;-68
2022/01/23 09:33:03;;;;;;;1.05;0.50;;;22.80;99.90;;;;;;5010846;28;20058;-69
2022/01/23 09:35:31;;;;;;;4.53;1.10;;;22.60;99.90;;;;;;5012208;28;20026;-71
2022/01/23 09:37:58;;;;;;;1.48;0.35;;;22.60;99.90;;;;;;5011881;28;20479;-68
2022/01/23 09:40:26;;;;;;;1.92;0.40;;;22.60;99.90;;;;;;5012207;28;20538;-70
2022/01/23 09:43:06;;;;;;;2.15;0.40;;;22.60;99.90;;;;;;5012205;28;20026;-69
2022/01/23 09:45:34;;;;;;;3.55;0.70;;;22.60;99.90;;;;;;5012174;28;20022;-68
2022/01/23 09:48:03;;;;;;;1.70;0.50;;;22.60;99.90;;;;;;5011751;28;20033;-69
2022/01/23 09:50:32;;;;;;;2.00;0.75;;;22.70;99.90;;;;;;5012160;28;20025;-69
2022/01/23 09:53:00;;;;;;;2.72;0.60;;;22.60;99.90;;;;;;5012207;28;20072;-69
2022/01/23 09:55:29;;;;;;;1.90;0.77;;;22.70;99.90;;;;;;5012645;28;20029;-70
2022/01/23 09:57:56;;;;;;;1.17;0.50;;;22.60;99.90;;;;;;5012249;28;20033;-70
2022/01/23 10:00:26;;;;;;;2.83;0.80;;;22.60;99.90;;;;;;5016527;28;20041;-70
2022/01/23 10:02:54;;;;;;;2.25;0.60;;;22.60;99.90;;;;;;5016164;28;20022;-69
2022/01/23 10:05:21;;;;;;;1.85;0.50;;;22.60;99.90;;;;;;5015701;28;20030;-69
2022/01/23 10:07:49;;;;;;;2.70;0.52;;;22.60;99.90;;;;;;5015555;28;20052;-70
2022/01/23 10:10:22;;;;;;;1.67;0.73;;;22.60;99.90;;;;;;5014210;28;20556;-71
2022/01/23 10:12:54;;;;;;;1.92;0.55;;;22.60;99.90;;;;;;5015598;28;20026;-71
2022/01/23 10:15:25;;;;;;;2.88;0.57;;;22.60;99.90;;;;;;5015806;28;20104;-70
2022/01/23 10:17:53;;;;;;;2.38;0.50;;;22.60;99.90;;;;;;5015734;28;20498;-69
2022/01/23 10:20:20;;;;;;;1.70;0.45;;;22.60;99.90;;;;;;5015721;28;20107;-70
2022/01/23 10:22:50;;;;;;;2.72;0.60;;;22.60;99.90;;;;;;5015698;28;20106;-70
2022/01/23 10:25:28;;;;;;;1.08;0.50;;;22.50;99.90;;;;;;5015725;28;20057;-70
2022/01/23 10:28:08;;;;;;;1.98;0.40;;;22.40;99.90;;;;;;5015715;28;20169;-70
2022/01/23 10:30:44;;;;;;;0.50;0.32;;;22.20;99.90;;;;;;5015314;28;20386;-70
2022/01/23 10:33:15;;;;;;;1.38;0.30;;;22.10;99.90;;;;;;5015327;28;20391;-70
2022/01/23 10:36:10;;;;;;;0.47;0.40;;;22.00;99.90;;;;;;5015301;28;20014;-70
2022/01/23 10:39:00;;;;;;;1.63;0.47;;;21.80;99.90;;;;;;5015154;28;20030;-69
2022/01/23 10:42:01;;;;;;;1.73;0.40;;;21.70;99.90;;;;;;5014903;28;20478;-70
2022/01/23 10:49:54;;;;;;;1.83;1.00;;;21.80;99.90;;;;;;5015166;28;20103;-70
2022/01/23 10:52:38;;;;;;;2.88;0.60;;;21.70;99.90;;;;;;5015048;28;20025;-70
2022/01/23 10:55:26;;;;;;;2.45;0.70;;;21.70;99.90;;;;;;5014834;28;20105;-72
2022/01/23 10:57:59;;;;;;;2.63;0.60;;;21.70;99.90;;;;;;5014935;28;20030;-71
2022/01/23 11:00:34;;;;;;;2.38;0.70;;;21.80;99.90;;;;;;5013887;28;20076;-70
2022/01/23 11:03:31;;;;;;;2.38;0.60;;;21.70;99.90;;;;;;5014878;28;20018;-68
2022/01/23 11:05:59;;;;;;;2.55;0.60;;;21.60;99.90;;;;;;5009217;28;20127;-70
2022/01/23 11:08:31;;;;;;;3.78;0.90;;;21.30;99.90;;;;;;5014746;28;20058;-69
2022/01/23 11:11:08;;;;;;;2.70;0.60;;;21.30;99.90;;;;;;5013535;28;20068;-71
2022/01/23 11:19:26;;;;;;;1.83;0.60;;;21.40;99.90;;;;;;5015087;28;20028;-69
2022/01/23 11:21:54;;;;;;;4.25;0.63;;;21.50;99.90;;;;;;5014402;28;20021;-69
2022/01/23 11:24:23;;;;;;;2.40;1.55;;;21.60;99.90;;;;;;5014277;28;20030;-68
2022/01/23 11:27:02;;;;;;;2.15;0.60;;;21.50;99.90;;;;;;5014488;28;20025;-69
2022/01/23 11:29:31;;;;;;;2.20;0.63;;;21.50;99.90;;;;;;5014225;28;20080;-69
2022/01/23 11:31:59;;;;;;;2.70;0.70;;;21.40;99.90;;;;;;5014570;28;20068;-69
2022/01/23 11:34:29;;;;;;;1.85;0.73;;;21.30;99.90;;;;;;5014581;28;20034;-70
2022/01/23 11:36:57;;;;;;;2.60;0.65;;;21.30;99.90;;;;;;5014473;28;20022;-69
2022/01/23 11:39:43;;;;;;;2.03;0.70;;;21.30;99.90;;;;;;5014620;28;20382;-68
2022/01/23 11:51:06;;;;;;;2.50;0.80;;;21.30;99.90;;;;;;4992274;28;20065;-70
2022/01/23 11:59:29;;;;;;;2.15;0.40;;;21.30;99.90;;;;;;5013910;28;20041;-69
2022/01/23 12:02:20;;;;;;;3.03;0.60;;;21.20;99.90;;;;;;5012558;28;20022;-70
2022/01/23 12:05:26;;;;;;;2.13;0.50;;;21.20;99.90;;;;;;5014283;28;20014;-70
2022/01/23 12:08:16;;;;;;;1.50;0.50;;;21.10;99.90;;;;;;4991425;28;20038;-69
2022/01/23 12:17:00;;;;;;;1.25;0.45;;;21.10;99.90;;;;;;5013735;28;20107;-70
2022/01/23 12:19:31;;;;;;;6.50;1.38;;;21.20;99.90;;;;;;5013721;28;20014;-69
2022/01/23 12:22:25;;;;;;;1.17;0.50;;;21.10;99.90;;;;;;5013139;28;20075;-68
2022/01/23 12:24:56;;;;;;;2.22;1.00;;;21.10;99.90;;;;;;5013426;28;20026;-68
2022/01/23 12:27:27;;;;;;;2.35;0.50;;;21.20;99.90;;;;;;5013289;28;20026;-67
2022/01/23 12:30:31;;;;;;;5.78;0.70;;;21.10;99.90;;;;;;5013517;28;20117;-66
2022/01/23 12:33:28;;;;;;;3.15;0.57;;;21.10;99.90;;;;;;5013199;28;20443;-69
2022/01/23 12:36:06;;;;;;;1.92;0.38;;;21.10;99.90;;;;;;5013354;28;20045;-68
2022/01/23 12:38:38;;;;;;;1.98;0.57;;;21.10;99.90;;;;;;5013323;28;20030;-68
2022/01/23 12:41:30;;;;;;;1.45;0.55;;;21.20;99.90;;;;;;5013332;28;20022;-69
2022/01/23 12:43:59;;;;;;;1.88;0.50;;;21.20;99.90;;;;;;5012003;28;20041;-68
2022/01/23 12:46:39;;;;;;;1.75;0.60;;;21.20;99.90;;;;;;5011958;28;20025;-69
2022/01/23 12:49:30;;;;;;;0.95;0.40;;;21.20;99.90;;;;;;5012948;28;20045;-70
2022/01/23 12:52:09;;;;;;;5.00;1.27;;;21.20;99.90;;;;;;5013054;28;20072;-68
2022/01/23 12:54:52;;;;;;;2.78;1.30;;;21.30;99.90;;;;;;5012729;28;20022;-69
2022/01/23 12:57:42;;;;;;;1.45;0.55;;;21.30;99.90;;;;;;5012627;28;20022;-68
2022/01/23 13:00:16;;;;;;;3.42;0.60;;;21.40;99.90;;;;;;5012811;28;20120;-69
2022/01/23 13:02:47;;;;;;;1.98;0.60;;;21.30;99.90;;;;;;5012587;28;20172;-69
2022/01/23 13:05:16;;;;;;;1.40;0.50;;;21.40;99.90;;;;;;5012618;28;20026;-69
2022/01/23 13:19:17;;;;;;;3.33;0.60;;;21.50;99.90;;;;;;5012680;28;20550;-69
2022/01/23 13:34:57;;;;;;;1.23;0.38;;;21.50;99.90;;;;;;5011977;28;20498;-68
2022/01/23 13:37:31;;;;;;;1.60;0.52;;;21.40;99.90;;;;;;5012086;28;20497;-69
2022/01/23 13:40:05;;;;;;;2.38;0.90;;;21.40;99.90;;;;;;5012221;28;20029;-69
2022/01/23 14:00:02;;;;;;;3.47;0.60;;;21.20;99.90;;;;;;5012272;28;20524;-69
2022/01/23 14:02:41;;;;;;;2.45;0.52;;;21.30;99.90;;;;;;5012151;28;20049;-70
2022/01/23 14:05:20;;;;;;;1.70;0.60;;;21.30;99.90;;;;;;5012060;28;20022;-69
2022/01/23 14:07:53;;;;;;;3.95;0.60;;;21.30;99.90;;;;;;5012023;28;20026;-68
2022/01/23 14:10:28;;;;;;;1.92;0.50;;;21.30;99.90;;;;;;5011875;28;20050;-69
2022/01/23 14:13:06;;;;;;;3.45;0.68;;;21.30;99.90;;;;;;5011920;28;20478;-68
2022/01/23 14:15:35;;;;;;;3.03;0.88;;;21.30;99.90;;;;;;5012141;28;20014;-68
2022/01/23 14:18:06;;;;;;;2.92;0.80;;;21.20;99.90;;;;;;5011990;28;20022;-69
2022/01/23 14:20:42;;;;;;;1.85;0.50;;;21.20;99.90;;;;;;5011651;28;20037;-70
2022/01/23 14:23:18;;;;;;;2.40;0.93;;;21.20;99.90;;;;;;5011472;28;20018;-69
2022/01/23 14:25:48;;;;;;;2.05;0.77;;;21.20;99.90;;;;;;5011775;28;20022;-69
2022/01/23 14:28:20;;;;;;;2.22;0.60;;;21.10;99.90;;;;;;5011566;28;20372;-70
2022/01/23 14:30:58;;;;;;;3.60;1.00;;;21.20;99.90;;;;;;5011616;28;20033;-69
2022/01/23 14:33:34;;;;;;;2.47;0.80;;;21.20;99.90;;;;;;5011808;28;20018;-69
2022/01/23 14:36:15;;;;;;;3.25;0.70;;;21.20;99.90;;;;;;5011796;28;20021;-69
2022/01/23 14:39:11;;;;;;;2.53;0.67;;;21.20;99.90;;;;;;5011622;28;20025;-68
2022/01/23 14:41:42;;;;;;;2.50;0.70;;;21.10;99.90;;;;;;5011602;28;20014;-70
2022/01/23 14:44:22;;;;;;;2.92;0.80;;;21.20;99.90;;;;;;5011299;28;20048;-69
2022/01/23 14:46:52;;;;;;;2.10;0.70;;;21.20;99.90;;;;;;5014429;28;20018;-70
2022/01/23 14:49:25;;;;;;;4.28;0.60;;;21.10;99.90;;;;;;5015020;28;20029;-70
2022/01/23 14:51:55;;;;;;;2.90;0.50;;;21.10;99.90;;;;;;5015045;28;20506;-70
2022/01/23 14:54:24;;;;;;;1.70;0.80;;;21.10;99.90;;;;;;5015144;28;20117;-69
2022/01/23 14:56:51;;;;;;;2.53;0.55;;;21.10;99.90;;;;;;5015085;28;20665;-70
2022/01/23 14:59:19;;;;;;;1.63;0.50;;;21.10;99.90;;;;;;5015045;28;20057;-69
2022/01/23 15:01:48;;;;;;;1.55;0.52;;;21.20;99.90;;;;;;5014746;28;20102;-69
2022/01/23 15:04:18;;;;;;;3.22;0.75;;;21.10;99.90;;;;;;5014722;28;20136;-69
2022/01/23 15:06:47;;;;;;;2.05;0.68;;;21.20;99.90;;;;;;5015177;28;20021;-70
2022/01/23 15:09:17;;;;;;;1.33;0.60;;;21.20;99.90;;;;;;5014469;28;20164;-69
2022/01/23 15:11:44;;;;;;;1.88;0.50;;;21.10;99.90;;;;;;5014415;28;20061;-70
2022/01/23 15:14:12;;;;;;;1.50;0.47;;;21.00;99.90;;;;;;5014603;28;20104;-69
2022/01/23 15:16:40;;;;;;;3.95;0.50;;;21.00;99.90;;;;;;5014602;28;20020;-70
2022/01/23 15:19:10;;;;;;;2.58;0.52;;;21.10;99.90;;;;;;5014746;28;20049;-70
2022/01/23 15:21:37;;;;;;;2.53;0.60;;;21.00;99.90;;;;;;5014490;28;20148;-70
2022/01/23 15:24:05;;;;;;;2.60;0.50;;;21.00;99.90;;;;;;5014508;28;20054;-70
2022/01/23 15:26:35;;;;;;;1.60;0.50;;;21.00;99.90;;;;;;5014435;28;20112;-69
2022/01/23 15:29:05;;;;;;;3.70;0.73;;;21.00;99.90;;;;;;5014207;28;20479;-70
2022/01/23 15:31:33;;;;;;;3.03;0.82;;;20.90;99.90;;;;;;5014179;28;20037;-69
2022/01/23 15:34:01;;;;;;;2.25;0.80;;;20.90;99.90;;;;;;5014269;28;20072;-71
2022/01/23 15:36:28;;;;;;;3.65;0.68;;;20.90;99.90;;;;;;5014245;28;20022;-71
2022/01/23 15:38:56;;;;;;;3.17;0.70;;;20.90;99.90;;;;;;5014151;28;20022;-69
2022/01/23 15:41:23;;;;;;;2.75;0.60;;;20.90;99.90;;;;;;5014219;28;20026;-70
2022/01/23 15:43:50;;;;;;;2.25;0.50;;;20.90;99.90;;;;;;5014266;28;20049;-69
2022/01/23 15:46:17;;;;;;;2.00;0.70;;;20.90;99.90;;;;;;5014109;28;20355;-69
2022/01/23 15:48:45;;;;;;;2.65;0.65;;;20.90;99.90;;;;;;5013782;28;20068;-69
2022/01/23 15:51:12;;;;;;;3.13;0.80;;;20.90;99.90;;;;;;5013843;28;20022;-68
2022/01/23 15:53:40;;;;;;;4.10;0.70;;;20.80;99.90;;;;;;5014028;28;20033;-71
2022/01/23 15:56:07;;;;;;;2.05;1.00;;;20.80;99.90;;;;;;5014122;28;20024;-69
2022/01/23 15:58:34;;;;;;;4.50;1.20;;;20.80;99.90;;;;;;5014139;28;20026;-70
2022/01/23 16:01:03;;;;;;;2.40;0.63;;;20.80;99.90;;;;;;5013784;28;20467;-70
2022/01/23 16:03:30;;;;;;;2.95;0.90;;;20.80;99.90;;;;;;5013870;28;20513;-69
2022/01/23 16:05:58;;;;;;;2.90;0.70;;;20.70;99.90;;;;;;5014005;28;20029;-70
2022/01/23 16:08:26;;;;;;;2.47;0.70;;;20.70;99.90;;;;;;5013673;28;20018;-70
2022/01/23 16:10:54;;;;;;;1.05;0.60;;;20.70;99.90;;;;;;5012117;28;20125;-69
2022/01/23 16:13:21;;;;;;;3.95;0.60;;;20.60;99.90;;;;;;5013206;28;20060;-71
2022/01/23 16:15:49;;;;;;;4.82;0.70;;;20.60;99.90;;;;;;5013801;28;20022;-70
2022/01/23 16:18:16;;;;;;;2.22;0.52;;;20.60;99.90;;;;;;5013704;28;20030;-70
2022/01/23 16:20:43;;;;;;;2.90;0.68;;;20.50;99.90;;;;;;5013436;28;20030;-70
2022/01/23 16:23:11;;;;;;;2.17;0.50;;;20.50;99.90;;;;;;5013515;28;20384;-72
2022/01/23 16:25:38;;;;;;;2.40;0.60;;;20.60;99.90;;;;;;5013510;28;20048;-70
2022/01/23 16:28:05;;;;;;;2.40;0.65;;;20.60;99.90;;;;;;5013579;28;20049;-70
2022/01/23 16:30:48;;;;;;;1.50;0.80;;;20.60;99.90;;;;;;5013328;28;20113;-69
2022/01/23 16:33:15;;;;;;;1.50;0.55;;;20.70;99.90;;;;;;5012874;28;20025;-68
2022/01/23 16:35:43;;;;;;;2.33;0.75;;;20.70;99.90;;;;;;5012803;28;20030;-68
2022/01/23 16:38:12;;;;;;;3.78;0.60;;;20.70;99.90;;;;;;5013423;28;20484;-69
2022/01/23 16:40:41;;;;;;;3.33;0.60;;;20.70;99.90;;;;;;5013229;28;20022;-70
2022/01/23 16:43:09;;;;;;;3.08;0.60;;;20.60;99.90;;;;;;5013326;28;20485;-66
2022/01/23 16:45:36;;;;;;;3.35;0.50;;;20.60;99.90;;;;;;5013043;28;20018;-70
2022/01/23 16:48:04;;;;;;;2.75;0.60;;;20.60;99.90;;;;;;5012731;28;20026;-70
2022/01/23 16:50:32;;;;;;;2.83;0.47;;;20.60;99.90;;;;;;5012654;28;20033;-70